AirNav   Everest Fuels
 
 925 users online  

2VG6 Rychlk Heliport
Manassas, Virginia, USA

GOING TO MANASSAS?


FAA INFORMATION EFFECTIVE 07 NOVEMBER 2019

Location

FAA Identifier: 2VG6
Lat/Long: 38-45-39.0000N 077-37-47.0000W
38-45.650000N 077-37.783333W
38.7608333,-77.6297222
(estimated)
Elevation: 330 ft. / 101 m (estimated)
From city: 7 miles W of MANASSAS, VA
Time zone: UTC -5 (UTC -4 during Daylight Saving Time)
Zip code: 20155

Heliport Operations

Heliport use: Private use. Permission required prior to landing
Activation date: 08/2005
Control tower: no
ARTCC: WASHINGTON CENTER
FSS: LEESBURG FLIGHT SERVICE STATION
Attendance: UNATNDD
Wind indicator: yes
Segmented circle: no

Heliport Communications

WX AWOS-3PT at HEF (6 nm SE): PHONE 703-361-6160
WX AWOS-3 at HWY (11 nm S): 120.350 (540-788-4078)
WX ASOS at IAD (14 nm NE): PHONE 703-661-2990
WX AWOS-3 at CJR (18 nm SW): 119.325 (540-727-0523)
WX AWOS-3 at JYO (19 nm N): 125.225 (703-777-3781)

Nearby radio navigation aids

VOR radial/distance  VOR name  Freq  Var
AMLr224/12.9ARMEL VOR/DME113.5008W
CSNr063/13.2CASANOVA VORTAC116.3006W
LDNr108/27.5LINDEN VORTAC114.3006W
DCAr267/28.4WASHINGTON VOR/DME111.0009W
BRVr342/28.6BROOKE VORTAC114.5009W
ADWr276/35.8ANDREWS VORTAC113.1010W
MRBr172/38.8MARTINSBURG VORTAC112.1007W

 
NDB name  Hdg/Dist  Freq  Var  ID
NAILR045/22.535110WMSQ -- ... --.-
DAVEE293/25.022309WDAA -.. .- .-
GEORGETOWN256/25.732309WGTN --. - -.
OXONN280/28.233211WDCA -.. -.-. .-
SHANNON354/30.823710WEZF . --.. ..-.
CAVERNS094/39.624509WLUA .-.. ..- .-

Heliport Services

Runway Information

Helipad H1

Dimensions: 25 x 25 ft. / 8 x 8 m
Surface: concrete
Traffic pattern: leftleft

Heliport Ownership and Management from official FAA records

Ownership: Privately-owned
Owner: KEVIN C. RYCHLIK
14817 GLENKIRK RD.
NOKESVILLE, VA 20181
Phone 571-220-3086
Manager: KEVIN C. RYCHLIK
14817 GLENKIRK RD.
NOKESVILLE, VA 20181
Phone 571-220-3086

Heliport Operational Statistics

Aircraft based on the field: 2
Helicopters: 2
    

Additional Remarks

FOR CD CTC POTOMAC APCH AT 866-709-4993.

Instrument Procedures

There are no published instrument procedures at 2VG6.

Some nearby airports with instrument procedures:

KHEF - Manassas Regional Airport/Harry P. Davis Field (6 nm SE)
KHWY - Warrenton-Fauquier Airport (11 nm S)
KIAD - Washington Dulles International Airport (14 nm NE)
2VG2 - Upperville Airport (17 nm NW)
KCJR - Culpeper Regional Airport (18 nm SW)
KJYO - Leesburg Executive Airport (19 nm N)
 
Loc | Ops | Rwys | IFR | FBO | Links
Com | Nav | Svcs | Stats | Notes
Area around 2VG6 (Rychlk Heliport)
 
Road maps at: MapQuest Bing Google
 
Aerial photo
No photo
 
Sectional chart

 
Airport distance calculator
Flying to Rychlk Heliport? Find the distance to fly.

From to 2VG6

Sunrise and sunset
Times for 18-Nov-2019
 Local
(UTC-5)
 Zulu
(UTC)
Morning civil twilight06:2911:29
Sunrise06:5711:57
Sunset16:5421:54
Evening civil twilight17:2322:23

Current date and time
Zulu (UTC)  18-Nov-2019 13:47:45
Local (UTC-5)  18-Nov-2019 08:47:45
 
METAR
KHEF 
6nm SE 
181256Z 01005KT 5SM BR OVC007 03/02 A2992 RMK AO2 SLP140 T00330017
KHWY 
11nm S 
181335Z AUTO 02004KT 10SM OVC012 05/01 A2990 RMK AO2 T00500010
KIAD 
13nm NE 
181252Z 36008KT 1 1/2SM BR OVC005 03/01 A2991 RMK AO2 SLP130 T00280011
KJYO 
19nm N 
181335Z AUTO 03003KT 1 1/4SM OVC003 01/01 A2992 RMK AO2
TAF
KIAD 
13nm NE 
181157Z 1812/1918 34005KT 1SM -DZ OVC008 FM181500 34005KT P6SM -DZ OVC010 FM181800 34004KT P6SM BKN035 FM190000 VRB03KT P6SM -SHRA OVC030 FM190600 VRB03KT P6SM BKN040 FM191100 00000KT 4SM BR BKN040 FM191500 29004KT P6SM BKN070
NOTAMs
Click for the latest NOTAMs
NOTAMs are issued by the DoD/FAA and will open in a separate window not controlled by AirNav.

 

 
 

Would you like to see your business listed on this page?

 If your business provides an interesting product or service to pilots, flight crews, aircraft, or users of the Rychlk Heliport, you should consider listing it here.  To start the listing process, click on the button below
 
Add a business
 

Other Pages about Rychlk Heliport

Update a link
 
Copyright © AirNav, LLC. All rights reserved. Privacy Policy  Contact